createdAt,value
2023-01-03T00:00:43.133Z,101457.13
2023-01-03T00:02:06.344Z,101444.36
2023-01-03T00:03:09.471Z,101443.38
2023-01-03T00:04:13.162Z,101441.19
2023-01-03T00:05:16.264Z,101440.36
2023-01-03T00:06:28.586Z,101443.74
2023-01-03T00:07:34.914Z,101444.60
2023-01-03T00:08:38.153Z,101441.91
2023-01-03T00:09:41.258Z,101442.58
2023-01-03T00:10:44.385Z,101442.25
2023-01-03T00:12:08.308Z,101448.41
2023-01-03T00:13:11.439Z,101444.50
2023-01-03T00:14:18.021Z,101438.18
2023-01-03T00:15:21.072Z,101437.61
2023-01-03T00:16:24.422Z,101437.81
2023-01-03T00:17:28.977Z,101443.66
2023-01-03T00:18:32.356Z,101441.36
2023-01-03T00:19:38.415Z,101434.31
2023-01-03T00:20:41.556Z,101434.64
2023-01-03T00:21:44.666Z,101434.17
2023-01-03T00:22:48.603Z,101427.96
2023-01-03T00:23:51.850Z,101434.05
2023-01-03T00:24:54.939Z,101441.83
2023-01-03T00:25:57.991Z,101439.63
2023-01-03T00:27:01.098Z,101443.86
2023-01-03T00:28:04.638Z,101439.79
2023-01-03T00:29:09.782Z,101434.48
2023-01-03T00:30:13.294Z,101445.98
2023-01-03T00:31:16.296Z,101444.70
2023-01-03T00:32:19.799Z,101441.42
2023-01-03T00:33:22.739Z,101440.52
2023-01-03T00:34:26.557Z,101436.48
2023-01-03T00:35:29.620Z,101439.14
2023-01-03T00:36:33.254Z,101449.94
2023-01-03T00:37:36.224Z,101453.80
2023-01-03T00:38:39.828Z,101459.47
2023-01-03T00:39:44.136Z,101454.89
2023-01-03T00:40:47.337Z,101463.83
2023-01-03T00:41:50.306Z,101468.54
2023-01-03T00:43:14.180Z,101464.86
2023-01-03T00:44:17.910Z,101467.20
2023-01-03T00:45:23.419Z,101462.74
2023-01-03T00:46:28.698Z,101467.90
2023-01-03T00:47:31.857Z,101470.39
2023-01-03T00:48:34.952Z,101470.29
2023-01-03T00:49:39.115Z,101473.16
2023-01-03T00:50:42.082Z,101478.16
2023-01-03T00:51:47.480Z,101478.28
2023-01-03T00:52:50.465Z,101476.54
2023-01-03T00:53:56.217Z,101478.81
2023-01-03T00:54:59.207Z,101477.27
2023-01-03T00:56:04.545Z,101478.96
2023-01-03T00:57:07.599Z,101486.27
2023-01-03T00:58:10.581Z,101485.11
2023-01-03T00:59:15.628Z,101490.02
2023-01-03T01:00:18.953Z,101491.21
2023-01-03T01:01:25.028Z,101490.86
2023-01-03T01:02:28.212Z,101495.19
2023-01-03T01:03:31.524Z,101491.52
2023-01-03T01:04:34.541Z,101498.25
2023-01-03T01:05:37.559Z,101498.34
2023-01-03T01:06:44.412Z,101495.95
2023-01-03T01:07:48.790Z,101494.02
2023-01-03T01:08:54.574Z,101498.13
2023-01-03T01:09:57.960Z,101502.40
2023-01-03T01:11:03.912Z,101502.52
2023-01-03T01:12:07.525Z,101501.16
2023-01-03T01:13:10.614Z,101507.45
2023-01-03T01:14:20.556Z,101507.22
2023-01-03T01:15:23.768Z,101505.39
2023-01-03T01:16:29.856Z,101512.29
2023-01-03T01:17:32.871Z,101509.45
2023-01-03T01:18:37.575Z,101507.77
2023-01-03T01:19:43.498Z,101506.44
2023-01-03T01:20:46.561Z,101507.75
2023-01-03T01:21:49.665Z,101507.42
2023-01-03T01:22:52.732Z,101504.35
2023-01-03T01:23:56.747Z,101507.62
2023-01-03T01:24:59.959Z,101500.30
2023-01-03T01:26:04.497Z,101506.63
2023-01-03T01:27:07.780Z,101505.44
2023-01-03T01:28:10.794Z,101504.34
2023-01-03T01:29:15.667Z,101503.11
2023-01-03T01:30:19.092Z,101510.59
2023-01-03T01:31:26.669Z,101507.83
2023-01-03T01:32:30.897Z,101497.82
2023-01-03T01:33:37.967Z,101505.77
2023-01-03T01:34:42.092Z,101513.46
2023-01-03T01:35:45.110Z,101508.93
2023-01-03T01:36:48.552Z,101511.69
2023-01-03T01:37:51.528Z,101509.57
2023-01-03T01:38:58.051Z,101506.13
2023-01-03T01:40:01.108Z,101508.58
2023-01-03T01:41:04.602Z,101510.38
2023-01-03T01:42:33.377Z,101511.11
2023-01-03T01:44:17.209Z,101517.80
2023-01-03T01:45:20.304Z,101518.55
2023-01-03T01:46:29.180Z,101514.45
2023-01-03T01:47:46.779Z,101520.06
2023-01-03T01:48:55.502Z,101522.44
2023-01-03T01:50:22.883Z,101528.02
2023-01-03T01:51:29.817Z,101527.02
2023-01-03T01:52:36.627Z,101526.09
2023-01-03T01:53:42.501Z,101531.44
2023-01-03T01:54:46.332Z,101531.90
2023-01-03T01:55:52.016Z,101534.23
2023-01-03T01:56:55.789Z,101530.26
2023-01-03T01:58:01.859Z,101525.52
2023-01-03T01:59:05.271Z,101535.87
2023-01-03T02:00:09.765Z,101530.93
2023-01-03T02:01:21.089Z,101536.98
2023-01-03T02:02:24.605Z,101532.64
2023-01-03T02:03:28.039Z,101536.81
2023-01-03T02:04:35.881Z,101527.09
2023-01-03T02:05:44.900Z,101530.47
2023-01-03T02:06:50.077Z,101531.30
2023-01-03T02:07:54.242Z,101536.68
2023-01-03T02:08:59.528Z,101534.22
2023-01-03T02:10:02.856Z,101539.19
2023-01-03T02:11:22.735Z,101531.83
2023-01-03T02:13:05.743Z,101534.50
2023-01-03T02:14:30.220Z,101542.65
2023-01-03T02:16:03.723Z,101540.77
2023-01-03T02:17:19.988Z,101544.33
2023-01-03T02:18:32.700Z,101544.70
2023-01-03T02:19:49.146Z,101546.08
2023-01-03T02:21:29.840Z,101554.20
2023-01-03T02:22:42.091Z,101556.16
2023-01-03T02:24:10.197Z,101555.71
2023-01-03T02:25:36.224Z,101558.95
2023-01-03T02:27:01.280Z,101565.54
2023-01-03T02:28:13.300Z,101561.80
2023-01-03T02:30:00.997Z,101564.64
2023-01-03T02:32:43.206Z,101564.14
2023-01-03T02:33:54.403Z,101568.37
2023-01-03T02:35:06.338Z,101570.75
2023-01-03T02:36:27.263Z,101574.35
2023-01-03T02:37:37.336Z,101571.53
2023-01-03T02:39:04.656Z,101573.78
2023-01-03T02:40:25.482Z,101577.36
2023-01-03T02:41:38.060Z,101581.44
2023-01-03T02:42:58.629Z,101578.90
2023-01-03T02:44:25.822Z,101576.83
2023-01-03T02:45:50.499Z,101579.38
2023-01-03T02:47:01.779Z,101577.06
2023-01-03T02:48:24.418Z,101577.84
2023-01-03T02:49:38.467Z,101587.20
2023-01-03T02:50:57.959Z,101580.00
2023-01-03T02:52:28.898Z,101575.44
2023-01-03T02:53:38.115Z,101565.58
2023-01-03T02:54:46.375Z,101568.13
2023-01-03T02:55:52.458Z,101569.14
2023-01-03T02:57:04.746Z,101566.52
2023-01-03T02:58:20.150Z,101564.38
2023-01-03T02:59:33.119Z,101571.03
2023-01-03T03:00:41.723Z,101575.63
2023-01-03T03:01:50.987Z,101567.70
2023-01-03T03:03:03.101Z,101574.35
2023-01-03T03:04:08.108Z,101579.77
2023-01-03T03:05:18.616Z,101581.80
2023-01-03T03:06:29.668Z,101580.84
2023-01-03T03:07:36.551Z,101585.55
2023-01-03T03:08:39.837Z,101581.64
2023-01-03T03:10:01.090Z,101582.54
2023-01-03T03:11:22.367Z,101580.81
2023-01-03T03:12:48.095Z,101572.56
2023-01-03T03:14:00.368Z,101572.71
2023-01-03T03:15:05.259Z,101586.27
2023-01-03T03:16:40.345Z,101582.86
2023-01-03T03:17:45.478Z,101583.84
2023-01-03T03:19:00.547Z,101590.42
2023-01-03T03:20:35.161Z,101594.68
2023-01-03T03:21:56.681Z,101587.69
2023-01-03T03:23:29.023Z,101587.94
2023-01-03T03:24:49.964Z,101596.08
2023-01-03T03:25:59.333Z,101592.69
2023-01-03T03:27:27.181Z,101587.65
2023-01-03T03:28:36.302Z,101588.77
2023-01-03T03:29:39.793Z,101613.24
2023-01-03T03:30:44.591Z,101604.50
2023-01-03T03:31:50.545Z,101604.45
2023-01-03T03:32:58.522Z,101596.70
2023-01-03T03:34:24.423Z,101600.92
2023-01-03T03:35:29.083Z,101614.48
2023-01-03T03:36:35.004Z,101615.78
2023-01-03T03:37:40.860Z,101602.84
2023-01-03T03:38:45.298Z,101609.17
2023-01-03T03:40:06.982Z,101611.51
2023-01-03T03:41:41.001Z,101607.77
2023-01-03T03:43:09.034Z,101603.20
2023-01-03T03:44:49.711Z,101608.52
2023-01-03T03:46:03.653Z,101619.92
2023-01-03T03:47:15.883Z,101610.77
2023-01-03T03:48:52.155Z,101615.39
2023-01-03T03:50:00.025Z,101619.46
2023-01-03T03:51:14.161Z,101613.58
2023-01-03T03:52:21.375Z,101620.39
2023-01-03T03:53:29.705Z,101618.79
2023-01-03T03:54:35.965Z,101614.31
2023-01-03T03:55:47.832Z,101620.16
2023-01-03T03:56:58.929Z,101622.43
2023-01-03T03:58:11.525Z,101626.47
2023-01-03T03:59:18.364Z,101620.06
2023-01-03T04:00:27.365Z,101623.25
2023-01-03T04:01:31.765Z,101618.04
2023-01-03T04:02:36.457Z,101631.48
2023-01-03T04:03:42.270Z,101619.77
2023-01-03T04:04:49.865Z,101626.04
2023-01-03T04:06:08.758Z,101624.77
2023-01-03T04:07:11.902Z,101617.59
2023-01-03T04:08:14.889Z,101628.63
2023-01-03T04:09:18.682Z,101613.59
2023-01-03T04:10:23.628Z,101627.60
2023-01-03T04:11:27.073Z,101611.59
2023-01-03T04:12:30.071Z,101614.80
2023-01-03T04:13:34.829Z,101617.65
2023-01-03T04:14:37.769Z,101621.70
2023-01-03T04:15:40.712Z,101628.46
2023-01-03T04:16:43.673Z,101605.42
2023-01-03T04:17:47.069Z,101620.21
2023-01-03T04:18:50.012Z,101627.52
2023-01-03T04:19:53.064Z,101624.08
2023-01-03T04:20:57.539Z,101624.31
2023-01-03T04:22:00.465Z,101632.69
2023-01-03T04:23:03.619Z,101634.91
2023-01-03T04:24:07.248Z,101635.27
2023-01-03T04:25:10.290Z,101630.44
2023-01-03T04:26:13.278Z,101632.58
2023-01-03T04:27:16.342Z,101636.38
2023-01-03T04:28:19.876Z,101624.73
2023-01-03T04:29:22.795Z,101636.45
2023-01-03T04:30:25.788Z,101628.70
2023-01-03T04:31:28.941Z,101641.84
2023-01-03T04:32:31.928Z,101640.02
2023-01-03T04:33:34.906Z,101637.70
2023-01-03T04:34:38.140Z,101639.89
2023-01-03T04:35:41.238Z,101636.38
2023-01-03T04:36:44.333Z,101632.30
2023-01-03T04:37:47.294Z,101650.52
2023-01-03T04:38:50.289Z,101633.64
2023-01-03T04:39:53.365Z,101638.45
2023-01-03T04:40:56.379Z,101640.39
2023-01-03T04:42:01.486Z,101640.41
2023-01-03T04:43:23.127Z,101645.63
2023-01-03T04:44:26.087Z,101656.10
2023-01-03T04:45:29.133Z,101648.27
2023-01-03T04:46:35.061Z,101661.91
2023-01-03T04:47:38.006Z,101651.96
2023-01-03T04:48:41.079Z,101652.20
2023-01-03T04:49:46.093Z,101646.89
2023-01-03T04:50:57.372Z,101654.77
2023-01-03T04:52:00.552Z,101662.08
2023-01-03T04:53:03.638Z,101660.58
2023-01-03T04:54:06.863Z,101650.68
2023-01-03T04:55:10.120Z,101656.05
2023-01-03T04:56:13.185Z,101657.60
2023-01-03T04:57:16.524Z,101651.70
2023-01-03T04:58:20.863Z,101661.61
2023-01-03T04:59:23.960Z,101662.07
2023-01-03T05:00:26.991Z,101665.59
2023-01-03T05:01:30.225Z,101665.37
2023-01-03T05:02:33.516Z,101666.34
2023-01-03T05:03:38.098Z,101682.21
2023-01-03T05:04:41.381Z,101673.11
2023-01-03T05:05:44.413Z,101666.67
2023-01-03T05:06:47.328Z,101665.40
2023-01-03T05:07:50.448Z,101660.86
2023-01-03T05:08:53.822Z,101662.36
2023-01-03T05:09:56.842Z,101672.80
2023-01-03T05:10:59.879Z,101667.13
2023-01-03T05:12:02.990Z,101659.53
2023-01-03T05:13:06.121Z,101666.54
2023-01-03T05:14:14.137Z,101670.55
2023-01-03T05:15:17.545Z,101676.02
2023-01-03T05:16:20.825Z,101675.77
2023-01-03T05:17:23.939Z,101679.27
2023-01-03T05:18:27.092Z,101673.57
2023-01-03T05:19:30.068Z,101675.20
2023-01-03T05:20:54.593Z,101677.89
2023-01-03T05:22:16.275Z,101676.47
2023-01-03T05:23:37.844Z,101689.96
2023-01-03T05:24:59.466Z,101683.42
2023-01-03T05:26:06.179Z,101686.77
2023-01-03T05:27:09.200Z,101686.43
2023-01-03T05:28:17.036Z,101685.73
2023-01-03T05:29:22.170Z,101693.90
2023-01-03T05:30:25.745Z,101695.77
2023-01-03T05:31:28.822Z,101696.27
2023-01-03T05:32:31.838Z,101700.63
2023-01-03T05:33:37.304Z,101689.99
2023-01-03T05:34:40.788Z,101693.80
2023-01-03T05:35:47.636Z,101697.95
2023-01-03T05:36:50.573Z,101702.13
2023-01-03T05:37:54.352Z,101704.70
2023-01-03T05:38:57.467Z,101704.92
2023-01-03T05:40:00.567Z,101705.05
2023-01-03T05:41:03.874Z,101711.77
2023-01-03T05:42:06.905Z,101706.65
2023-01-03T05:43:09.832Z,101710.00
2023-01-03T05:44:12.795Z,101708.12
2023-01-03T05:45:16.613Z,101716.28
2023-01-03T05:46:19.758Z,101710.48
2023-01-03T05:47:22.761Z,101719.05
2023-01-03T05:48:25.721Z,101717.41
2023-01-03T05:49:28.917Z,101731.53
2023-01-03T05:50:32.791Z,101725.27
2023-01-03T05:51:35.878Z,101729.11
2023-01-03T05:52:38.864Z,101729.94
2023-01-03T05:53:41.823Z,101733.38
2023-01-03T05:54:44.913Z,101728.30
2023-01-03T05:55:47.841Z,101734.61
2023-01-03T05:56:51.456Z,101735.56
2023-01-03T05:57:54.581Z,101736.19
2023-01-03T05:58:58.058Z,101741.33
2023-01-03T06:00:01.020Z,101743.05
2023-01-03T06:01:11.616Z,101750.60
2023-01-03T06:02:14.818Z,101746.61
2023-01-03T06:03:17.787Z,101746.73
2023-01-03T06:04:20.839Z,101745.87
2023-01-03T06:05:24.153Z,101738.83
2023-01-03T06:06:27.245Z,101752.04
2023-01-03T06:07:31.204Z,101751.96
2023-01-03T06:08:34.189Z,101750.80
2023-01-03T06:09:37.244Z,101748.64
2023-01-03T06:10:40.965Z,101760.91
2023-01-03T06:11:44.611Z,101757.65
2023-01-03T06:12:47.628Z,101766.71
2023-01-03T06:13:50.555Z,101762.89
2023-01-03T06:14:53.621Z,101767.41
2023-01-03T06:16:24.867Z,101767.59
2023-01-03T06:17:46.529Z,101777.87
2023-01-03T06:18:49.780Z,101771.49
2023-01-03T06:19:52.755Z,101781.05
2023-01-03T06:20:55.632Z,101771.11
2023-01-03T06:21:58.621Z,101780.67
2023-01-03T06:23:01.594Z,101780.04
2023-01-03T06:24:05.389Z,101781.17
2023-01-03T06:25:08.856Z,101784.20
2023-01-03T06:26:11.952Z,101782.50
2023-01-03T06:27:15.089Z,101789.63
2023-01-03T06:28:18.110Z,101787.00
2023-01-03T06:29:21.012Z,101794.10
2023-01-03T06:30:24.175Z,101794.09
2023-01-03T06:31:27.958Z,101793.86
2023-01-03T06:32:31.166Z,101791.07
2023-01-03T06:33:34.337Z,101794.64
2023-01-03T06:34:37.979Z,101795.54
2023-01-03T06:35:41.211Z,101793.03
2023-01-03T06:36:44.601Z,101796.10
2023-01-03T06:37:47.641Z,101797.92
2023-01-03T06:38:50.677Z,101795.10
2023-01-03T06:39:53.550Z,101795.50
2023-01-03T06:40:56.650Z,101801.86
2023-01-03T06:42:20.290Z,101805.30
2023-01-03T06:43:23.294Z,101806.80
2023-01-03T06:44:26.305Z,101806.35
2023-01-03T06:45:47.928Z,101807.34
2023-01-03T06:47:09.474Z,101812.08
2023-01-03T06:48:30.836Z,101813.07
2023-01-03T06:49:52.778Z,101811.39
2023-01-03T06:51:14.640Z,101808.40
2023-01-03T06:52:36.165Z,101811.77
2023-01-03T06:53:42.090Z,101818.66
2023-01-03T06:54:45.014Z,101817.89
2023-01-03T06:55:56.152Z,101819.29
2023-01-03T06:57:00.331Z,101818.95
2023-01-03T06:58:03.705Z,101811.33
2023-01-03T06:59:06.642Z,101818.02
2023-01-03T07:00:10.534Z,101816.86
2023-01-03T07:01:15.252Z,101818.08
2023-01-03T07:02:18.372Z,101816.13
2023-01-03T07:03:22.707Z,101827.80
2023-01-03T07:04:26.103Z,101810.89
2023-01-03T07:05:29.605Z,101818.00
2023-01-03T07:06:32.603Z,101826.27
2023-01-03T07:07:35.550Z,101819.46
2023-01-03T07:08:44.157Z,101818.40
2023-01-03T07:09:50.787Z,101818.33
2023-01-03T07:10:54.691Z,101820.34
2023-01-03T07:11:57.687Z,101825.70
2023-01-03T07:13:19.860Z,101817.17
2023-01-03T07:14:22.740Z,101822.83
2023-01-03T07:15:25.681Z,101821.77
2023-01-03T07:16:31.635Z,101825.67
2023-01-03T07:17:34.785Z,101826.77
2023-01-03T07:18:37.669Z,101829.13
2023-01-03T07:19:40.642Z,101833.06
2023-01-03T07:20:44.475Z,101829.73
2023-01-03T07:21:47.436Z,101835.36
2023-01-03T07:22:50.443Z,101834.39
2023-01-03T07:23:57.939Z,101843.64
2023-01-03T07:25:00.983Z,101841.16
2023-01-03T07:26:04.185Z,101848.63
2023-01-03T07:27:07.215Z,101834.94
2023-01-03T07:28:12.329Z,101851.33
2023-01-03T07:29:15.393Z,101847.77
2023-01-03T07:30:18.573Z,101859.98
2023-01-03T07:31:21.616Z,101849.88
2023-01-03T07:32:24.913Z,101855.36
2023-01-03T07:33:28.335Z,101852.44
2023-01-03T07:34:31.344Z,101858.85
2023-01-03T07:35:35.828Z,101855.55
2023-01-03T07:36:40.157Z,101854.65
2023-01-03T07:37:43.163Z,101860.31
2023-01-03T07:38:47.051Z,101861.89
2023-01-03T07:39:50.125Z,101857.98
2023-01-03T07:40:56.809Z,101860.45
2023-01-03T07:42:18.546Z,101856.52
2023-01-03T07:43:36.972Z,101860.42
2023-01-03T07:44:40.020Z,101863.79
2023-01-03T07:45:44.363Z,101860.55
2023-01-03T07:46:47.403Z,101862.36
2023-01-03T07:47:50.445Z,101863.56
2023-01-03T07:48:57.355Z,101863.89
2023-01-03T07:50:00.262Z,101862.96
2023-01-03T07:51:05.991Z,101865.77
2023-01-03T07:52:09.160Z,101865.93
2023-01-03T07:53:16.729Z,101865.94
2023-01-03T07:54:20.071Z,101873.30
2023-01-03T07:55:23.033Z,101871.45
2023-01-03T07:56:25.968Z,101869.98
2023-01-03T07:57:29.539Z,101880.69
2023-01-03T07:58:33.119Z,101874.90
2023-01-03T07:59:36.336Z,101881.50
2023-01-03T08:00:40.034Z,101873.83
2023-01-03T08:01:43.042Z,101873.48
2023-01-03T08:02:46.360Z,101879.45
2023-01-03T08:03:50.454Z,101884.52
2023-01-03T08:04:53.676Z,101880.46
2023-01-03T08:06:00.532Z,101888.20
2023-01-03T08:07:03.553Z,101889.48
2023-01-03T08:08:06.753Z,101891.13
2023-01-03T08:09:27.996Z,101886.77
2023-01-03T08:10:49.414Z,101890.33
2023-01-03T08:12:11.039Z,101893.73
2023-01-03T08:13:19.862Z,101893.54
2023-01-03T08:14:26.120Z,101890.72
2023-01-03T08:15:29.881Z,101896.53
2023-01-03T08:16:32.845Z,101898.38
2023-01-03T08:17:35.747Z,101902.69
2023-01-03T08:18:40.056Z,101898.35
2023-01-03T08:19:45.676Z,101903.18
2023-01-03T08:20:49.836Z,101894.66
2023-01-03T08:21:52.950Z,101905.91
2023-01-03T08:22:56.002Z,101905.00
2023-01-03T08:23:59.171Z,101905.52
2023-01-03T08:25:02.392Z,101917.48
2023-01-03T08:26:16.812Z,101907.21
2023-01-03T08:27:19.801Z,101912.13
2023-01-03T08:28:22.879Z,101921.83
2023-01-03T08:29:25.872Z,101917.95
2023-01-03T08:30:29.693Z,101914.56
2023-01-03T08:31:36.019Z,101920.43
2023-01-03T08:32:39.129Z,101929.82
2023-01-03T08:33:49.650Z,101927.39
2023-01-03T08:34:54.393Z,101933.80
2023-01-03T08:36:03.448Z,101931.05
2023-01-03T08:37:10.382Z,101933.61
2023-01-03T08:38:18.759Z,101938.54
2023-01-03T08:39:26.605Z,101943.91
2023-01-03T08:40:35.405Z,101937.17
2023-01-03T08:41:47.429Z,101937.50
2023-01-03T08:42:50.439Z,101941.41
2023-01-03T08:43:55.295Z,101949.36
2023-01-03T08:45:04.785Z,101943.20
2023-01-03T08:46:11.809Z,101944.27
2023-01-03T08:47:16.124Z,101945.61
2023-01-03T08:48:21.298Z,101943.16
2023-01-03T08:49:24.902Z,101950.48
2023-01-03T08:50:31.009Z,101946.21
2023-01-03T08:51:34.113Z,101948.11
2023-01-03T08:52:37.540Z,101952.12
2023-01-03T08:53:40.885Z,101947.28
2023-01-03T08:54:44.089Z,101947.67
2023-01-03T08:55:47.023Z,101954.38
2023-01-03T08:56:49.928Z,101949.98
2023-01-03T08:57:53.154Z,101953.62
2023-01-03T08:58:58.850Z,101951.92
2023-01-03T09:00:02.247Z,101959.38
2023-01-03T09:01:06.815Z,101946.81
2023-01-03T09:02:10.051Z,101964.73
2023-01-03T09:03:13.345Z,101960.89
2023-01-03T09:04:16.898Z,101961.11
2023-01-03T09:05:19.932Z,101957.65
2023-01-03T09:06:22.864Z,101965.04
2023-01-03T09:07:25.959Z,101963.78
2023-01-03T09:08:33.359Z,101961.17
2023-01-03T09:09:36.406Z,101966.09
2023-01-03T09:10:47.163Z,101964.42
2023-01-03T09:11:50.644Z,101970.77
2023-01-03T09:12:53.623Z,101974.54
2023-01-03T09:13:56.685Z,101973.96
2023-01-03T09:14:59.661Z,101977.01
2023-01-03T09:16:07.523Z,101978.73
2023-01-03T09:17:10.700Z,101986.05
2023-01-03T09:18:14.959Z,101984.38
2023-01-03T09:19:17.925Z,101985.95
2023-01-03T09:20:20.959Z,101984.83
2023-01-03T09:21:24.242Z,101989.25
2023-01-03T09:22:27.279Z,101986.82
2023-01-03T09:23:31.363Z,101990.95
2023-01-03T09:24:34.867Z,101992.65
2023-01-03T09:25:37.964Z,101995.73
2023-01-03T09:26:41.070Z,101994.85
2023-01-03T09:27:47.990Z,101999.42
2023-01-03T09:28:51.232Z,101997.70
2023-01-03T09:29:54.266Z,102004.67
2023-01-03T09:30:57.418Z,101999.96
2023-01-03T09:32:03.410Z,102002.76
2023-01-03T09:33:06.726Z,101998.73
2023-01-03T09:34:09.827Z,102003.70
2023-01-03T09:35:12.822Z,102002.06
2023-01-03T09:36:15.814Z,102002.76
2023-01-03T09:37:19.396Z,101996.65
2023-01-03T09:38:25.471Z,101998.79
2023-01-03T09:39:28.375Z,101998.59
2023-01-03T09:40:36.077Z,102004.07
2023-01-03T09:41:40.044Z,101998.80
2023-01-03T09:43:02.232Z,101999.48
2023-01-03T09:44:08.692Z,102001.10
2023-01-03T09:45:17.258Z,101997.77
2023-01-03T09:46:23.207Z,102001.19
2023-01-03T09:47:26.486Z,101999.73
2023-01-03T09:48:35.542Z,102000.37
2023-01-03T09:49:57.760Z,102003.41
2023-01-03T09:51:19.615Z,102000.73
2023-01-03T09:52:46.583Z,102006.30
2023-01-03T09:54:07.730Z,102003.40
2023-01-03T09:55:47.809Z,101999.60
2023-01-03T09:57:26.330Z,102004.77
2023-01-03T09:58:50.604Z,102003.61
2023-01-03T10:00:12.433Z,102005.77
2023-01-03T10:01:37.241Z,102005.02
2023-01-03T10:03:27.330Z,102000.54
2023-01-03T10:04:45.890Z,102003.56
2023-01-03T10:06:09.381Z,102002.23
2023-01-03T10:07:35.757Z,102003.02
2023-01-03T10:08:42.319Z,102008.73
2023-01-03T10:10:07.968Z,102020.73
2023-01-03T10:11:26.078Z,102003.70
2023-01-03T10:12:45.713Z,102004.37
2023-01-03T10:14:03.857Z,101998.86
2023-01-03T10:15:24.201Z,102001.30
2023-01-03T10:16:37.459Z,102010.81
2023-01-03T10:18:15.980Z,102008.98
2023-01-03T10:19:39.855Z,102007.44
2023-01-03T10:20:45.769Z,102009.52
2023-01-03T10:22:11.671Z,102014.41
2023-01-03T10:23:15.138Z,102009.54
2023-01-03T10:24:46.293Z,102016.18
2023-01-03T10:25:49.358Z,102016.84
2023-01-03T10:26:56.184Z,102011.77
2023-01-03T10:28:18.698Z,102011.14
2023-01-03T10:29:21.693Z,102013.88
2023-01-03T10:30:42.515Z,102018.52
2023-01-03T10:32:19.893Z,102012.44
2023-01-03T10:33:40.219Z,102021.69
2023-01-03T10:34:43.167Z,102018.68
2023-01-03T10:35:46.189Z,102028.94
2023-01-03T10:36:49.165Z,102026.66
2023-01-03T10:37:54.301Z,102029.00
2023-01-03T10:39:10.398Z,102025.10
2023-01-03T10:40:14.691Z,102027.86
2023-01-03T10:41:23.497Z,102030.27
2023-01-03T10:42:30.737Z,102030.09
2023-01-03T10:43:39.774Z,102033.63
2023-01-03T10:44:57.653Z,102037.41
2023-01-03T10:46:04.100Z,102035.05
2023-01-03T10:47:16.400Z,102032.77
2023-01-03T10:48:19.419Z,102028.10
2023-01-03T10:49:27.902Z,102038.77
2023-01-03T10:50:37.906Z,102044.92
2023-01-03T10:51:48.067Z,102038.70
2023-01-03T10:53:06.587Z,102046.02
2023-01-03T10:54:24.920Z,102043.98
2023-01-03T10:55:28.409Z,102036.58
2023-01-03T10:56:35.090Z,102046.52
2023-01-03T10:57:53.182Z,102049.09
2023-01-03T10:59:28.768Z,102038.94
2023-01-03T11:00:37.082Z,102043.23
2023-01-03T11:01:40.270Z,102045.27
2023-01-03T11:02:47.277Z,102045.42
2023-01-03T11:04:13.769Z,102049.27
2023-01-03T11:05:21.729Z,102041.84
2023-01-03T11:06:24.682Z,102048.88
2023-01-03T11:07:27.690Z,102051.21
2023-01-03T11:08:48.985Z,102054.20
2023-01-03T11:09:56.800Z,102053.21
2023-01-03T11:11:00.893Z,102053.15
2023-01-03T11:12:14.798Z,102055.89
2023-01-03T11:13:38.468Z,102054.36
2023-01-03T11:14:55.150Z,102062.60
2023-01-03T11:16:01.960Z,102058.44
2023-01-03T11:17:06.002Z,102057.13
2023-01-03T11:18:20.743Z,102060.92
2023-01-03T11:19:27.656Z,102060.59
2023-01-03T11:20:47.600Z,102066.13
2023-01-03T11:22:30.995Z,102059.06
2023-01-03T11:23:58.100Z,102066.66
2023-01-03T11:25:11.807Z,102072.57
2023-01-03T11:26:26.884Z,102073.34
2023-01-03T11:27:42.391Z,102073.50
2023-01-03T11:29:08.934Z,102068.39
2023-01-03T11:30:40.248Z,102072.94
2023-01-03T11:31:58.286Z,102076.67
2023-01-03T11:33:48.652Z,102073.75
2023-01-03T11:35:23.425Z,102074.94
2023-01-03T11:36:48.707Z,102082.71
2023-01-03T11:38:03.958Z,102075.60
2023-01-03T11:39:32.915Z,102078.50
2023-01-03T11:41:00.608Z,102081.45
2023-01-03T11:42:09.306Z,102085.63
2023-01-03T11:43:37.015Z,102088.09
2023-01-03T11:45:01.318Z,102097.34
2023-01-03T11:46:29.356Z,102091.58
2023-01-03T11:47:45.428Z,102092.71
2023-01-03T11:48:57.360Z,102096.91
2023-01-03T11:50:41.137Z,102095.08
2023-01-03T11:52:14.250Z,102095.40
2023-01-03T11:53:38.288Z,102093.51
2023-01-03T11:55:17.355Z,102094.56
2023-01-03T11:56:30.996Z,102094.94
2023-01-03T11:58:08.745Z,102100.07
2023-01-03T11:59:57.017Z,102098.44
2023-01-03T12:01:17.535Z,102093.64
2023-01-03T12:03:02.099Z,102085.93
2023-01-03T12:04:26.843Z,102088.63
2023-01-03T12:05:30.046Z,102094.58
2023-01-03T12:06:51.486Z,102093.11
2023-01-03T12:08:16.745Z,102095.08
2023-01-03T12:09:30.138Z,102098.95
2023-01-03T12:10:46.084Z,102089.90
2023-01-03T12:11:51.611Z,102102.48
2023-01-03T12:13:29.178Z,102098.44
2023-01-03T12:15:14.986Z,102097.08
2023-01-03T12:16:47.532Z,102104.33
2023-01-03T12:17:59.615Z,102100.33
2023-01-03T12:19:12.735Z,102105.39
2023-01-03T12:20:26.730Z,102105.33
2023-01-03T12:21:36.682Z,102103.52
2023-01-03T12:22:44.528Z,102098.54
2023-01-03T12:23:58.823Z,102100.23
2023-01-03T12:25:26.470Z,102102.33
2023-01-03T12:26:30.512Z,102104.38
2023-01-03T12:27:42.281Z,102105.45
2023-01-03T12:29:06.004Z,102106.04
2023-01-03T12:30:35.502Z,102105.33
2023-01-03T12:31:58.397Z,102112.23
2023-01-03T12:33:26.165Z,102115.56
2023-01-03T12:34:47.157Z,102115.21
2023-01-03T12:36:17.857Z,102121.98
2023-01-03T12:37:23.308Z,102121.67
2023-01-03T12:38:31.200Z,102111.35
2023-01-03T12:39:40.038Z,102118.17
2023-01-03T12:40:56.827Z,102115.39
2023-01-03T12:42:04.779Z,102126.52
2023-01-03T12:43:38.995Z,102125.13
2023-01-03T12:44:47.241Z,102118.51
2023-01-03T12:46:00.665Z,102127.08
2023-01-03T12:47:06.258Z,102128.44
2023-01-03T12:48:37.339Z,102126.53
2023-01-03T12:49:55.715Z,102123.42
2023-01-03T12:50:58.781Z,102128.34
2023-01-03T12:52:02.048Z,102125.63
2023-01-03T12:53:10.986Z,102124.65
2023-01-03T12:54:42.571Z,102124.09
2023-01-03T12:55:58.266Z,102123.52
2023-01-03T12:57:34.105Z,102125.72
2023-01-03T12:58:39.715Z,102127.89
2023-01-03T12:59:57.742Z,102123.85
2023-01-03T13:01:09.165Z,102124.46
2023-01-03T13:02:48.950Z,102123.02
2023-01-03T13:04:23.231Z,102117.98
2023-01-03T13:05:38.812Z,102126.61
2023-01-03T13:06:48.043Z,102131.34
2023-01-03T13:08:09.925Z,102126.08
2023-01-03T13:09:32.332Z,102130.92
2023-01-03T13:10:38.151Z,102128.33
2023-01-03T13:11:57.095Z,102134.63
2023-01-03T13:13:01.921Z,102134.19
2023-01-03T13:14:17.088Z,102132.41
2023-01-03T13:15:36.674Z,102136.27
2023-01-03T13:16:45.316Z,102139.23
2023-01-03T13:17:49.703Z,102144.96
2023-01-03T13:18:52.719Z,102141.02